BAW32A VHHH-EGLL
Flight info
| Callsign | BAW32A |
|---|---|
| Flight time | N/A |
| Altitude | 34100 |
| Route | K0932S1040 BEKOL5A BEKOL A461 SHL W22 TEPID W24 OSNOV G586 QP B330 ELKAL W179 IGNAK/K0932S1010 W179 WFX/K0924S1040 W179 OMBON W195 VIDEK/K0928S1010 W195 LAXAL/K0922S1040 W195 ALGOT/K0917S1010 W195 ESPED/K0913S1040 W66 NUKTI B215 FKG A368 SARIN/K0907F340 N161 DIVNO/K0911F360 N161 GASBI/N0494F360 N161 EDATA M11 REBLO UR317 DELEL UT167 NETPU UB111 TBN UM11 CRM UL746 ODERO DCT LUGEB/N0482F380 DCT BUDOP DCT BEGLA DCT DEXIT DCT INBED DCT BOMBI DCT ADKUV DCT SOGRI DCT DENUT L608 LOGAN LOGAN2H |
| Aircraft | A35K/H-SBDE1E2E3GHIJ1J3J4J5J6M1M2P2RWXYZ/LB1D1 |
Departure
| Time | 2026-05-05 20:39 |
|---|---|
| Airport | Hong Kong International Airport (VHHH) |
Arrival
| Time | N/A |
|---|---|
| Airport | London Heathrow Airport (EGLL) |
| Time | Latitude | Longitude | Altitude | Speed | Heading |
|---|---|---|---|---|---|
| 2026-05-05 20:36 | 22.29915 | 113.89852 | 38 ft | 23 kts | 251° |
| 2026-05-05 20:37 | 22.29870 | 113.89742 | 38 ft | 12 kts | 221° |
| 2026-05-05 20:37 | 22.29794 | 113.89746 | 38 ft | 10 kts | 161° |
| 2026-05-05 20:37 | 22.29728 | 113.89770 | 38 ft | 10 kts | 161° |
| 2026-05-05 20:37 | 22.29651 | 113.89798 | 35 ft | 13 kts | 161° |
| 2026-05-05 20:38 | 22.29634 | 113.89846 | 35 ft | 7 kts | 71° |
| 2026-05-05 20:38 | 22.29635 | 113.89851 | 35 ft | 0 kts | 70° |
| 2026-05-05 20:38 | 22.29650 | 113.89896 | 36 ft | 25 kts | 70° |
| 2026-05-05 20:38 | 22.29785 | 113.90313 | 36 ft | 91 kts | 71° |
| 2026-05-05 20:39 | 22.30058 | 113.91162 | 37 ft | 147 kts | 71° |
| 2026-05-05 20:39 | 22.30452 | 113.92381 | 97 ft | 191 kts | 71° |
| 2026-05-05 20:39 | 22.30871 | 113.93707 | 842 ft | 183 kts | 72° |
| 2026-05-05 20:39 | 22.31270 | 113.95025 | 1329 ft | 194 kts | 72° |
| 2026-05-05 20:40 | 22.31722 | 113.96449 | 1513 ft | 208 kts | 71° |
| 2026-05-05 20:40 | 22.32226 | 113.97963 | 1772 ft | 219 kts | 70° |
| 2026-05-05 20:40 | 22.32739 | 113.99520 | 2193 ft | 222 kts | 71° |
| 2026-05-05 20:40 | 22.33251 | 114.01094 | 2653 ft | 223 kts | 71° |
| 2026-05-05 20:41 | 22.33702 | 114.02696 | 3117 ft | 223 kts | 78° |
| 2026-05-05 20:41 | 22.33788 | 114.04370 | 3549 ft | 226 kts | 96° |
| 2026-05-05 20:41 | 22.33341 | 114.06006 | 3958 ft | 230 kts | 116° |
| 2026-05-05 20:41 | 22.32379 | 114.07392 | 4339 ft | 234 kts | 136° |
| 2026-05-05 20:42 | 22.31011 | 114.08339 | 4768 ft | 237 kts | 157° |
| 2026-05-05 20:42 | 22.29402 | 114.08716 | 5198 ft | 238 kts | 176° |
| 2026-05-05 20:42 | 22.27746 | 114.08749 | 5642 ft | 238 kts | 180° |
| 2026-05-05 20:42 | 22.26083 | 114.08729 | 6068 ft | 240 kts | 180° |
| 2026-05-05 20:43 | 22.24417 | 114.08718 | 6442 ft | 241 kts | 180° |
| 2026-05-05 20:43 | 22.22694 | 114.08704 | 6627 ft | 254 kts | 181° |
| 2026-05-05 20:43 | 22.20873 | 114.08675 | 6768 ft | 268 kts | 181° |
| 2026-05-05 20:43 | 22.18976 | 114.08746 | 7071 ft | 277 kts | 171° |
| 2026-05-05 20:44 | 22.17209 | 114.09548 | 7453 ft | 281 kts | 141° |
| 2026-05-05 20:44 | 22.16057 | 114.11241 | 7843 ft | 285 kts | 110° |
| 2026-05-05 20:44 | 22.15704 | 114.13352 | 8278 ft | 289 kts | 95° |
| 2026-05-05 20:44 | 22.15586 | 114.15527 | 8711 ft | 292 kts | 94° |
| 2026-05-05 20:45 | 22.15361 | 114.19944 | 9576 ft | 298 kts | 94° |
| 2026-05-05 20:45 | 22.15232 | 114.22186 | 10019 ft | 301 kts | 94° |
| 2026-05-05 20:45 | 22.15118 | 114.24474 | 10250 ft | 312 kts | 91° |
| 2026-05-05 20:46 | 22.15376 | 114.26837 | 10434 ft | 323 kts | 78° |
| 2026-05-05 20:46 | 22.15882 | 114.29240 | 10609 ft | 334 kts | 77° |
| 2026-05-05 20:46 | 22.16433 | 114.31720 | 10801 ft | 346 kts | 77° |
| 2026-05-05 20:46 | 22.16996 | 114.34282 | 10985 ft | 357 kts | 77° |
| 2026-05-05 20:47 | 22.17570 | 114.36923 | 11174 ft | 367 kts | 77° |
| 2026-05-05 20:47 | 22.18350 | 114.39591 | 11329 ft | 377 kts | 64° |
| 2026-05-05 20:47 | 22.19877 | 114.41913 | 11481 ft | 385 kts | 42° |
| 2026-05-05 20:47 | 22.22122 | 114.43501 | 11619 ft | 392 kts | 20° |
| 2026-05-05 20:48 | 22.24788 | 114.44132 | 11764 ft | 397 kts | 360° |
| 2026-05-05 20:48 | 22.27475 | 114.43715 | 12014 ft | 398 kts | 339° |
| 2026-05-05 20:48 | 22.29973 | 114.42438 | 12354 ft | 398 kts | 328° |
| 2026-05-05 20:48 | 22.32524 | 114.41250 | 12690 ft | 402 kts | 342° |
| 2026-05-05 20:49 | 22.35253 | 114.40526 | 13067 ft | 405 kts | 346° |
| 2026-05-05 20:49 | 22.38024 | 114.39926 | 13423 ft | 407 kts | 347° |
| 2026-05-05 20:49 | 22.40815 | 114.39362 | 13775 ft | 409 kts | 348° |
| 2026-05-05 20:49 | 22.43627 | 114.38810 | 14119 ft | 411 kts | 348° |
| 2026-05-05 20:50 | 22.46406 | 114.38043 | 14432 ft | 412 kts | 337° |
| 2026-05-05 20:50 | 22.48890 | 114.36528 | 14746 ft | 410 kts | 320° |
| 2026-05-05 20:50 | 22.50811 | 114.34271 | 15065 ft | 410 kts | 302° |
| 2026-05-05 20:50 | 22.51997 | 114.31477 | 15355 ft | 411 kts | 284° |
| 2026-05-05 20:51 | 22.52349 | 114.28418 | 15660 ft | 412 kts | 270° |
| 2026-05-05 20:51 | 22.52492 | 114.25314 | 15966 ft | 414 kts | 277° |
| 2026-05-05 20:51 | 22.52911 | 114.22230 | 16273 ft | 416 kts | 279° |
| 2026-05-05 20:51 | 22.53407 | 114.19172 | 16560 ft | 418 kts | 281° |
| 2026-05-05 20:52 | 22.54277 | 114.16161 | 16843 ft | 421 kts | 295° |
| 2026-05-05 20:52 | 22.55873 | 114.13504 | 17123 ft | 423 kts | 311° |
| 2026-05-05 20:52 | 22.58121 | 114.11450 | 17427 ft | 426 kts | 327° |
| 2026-05-05 20:52 | 22.60699 | 114.09841 | 17721 ft | 429 kts | 331° |
| 2026-05-05 20:53 | 22.63388 | 114.08412 | 17989 ft | 431 kts | 334° |
| 2026-05-05 20:53 | 22.66125 | 114.07063 | 18255 ft | 433 kts | 335° |
| 2026-05-05 20:53 | 22.68880 | 114.05729 | 18547 ft | 434 kts | 334° |
| 2026-05-05 20:53 | 22.71636 | 114.04384 | 18831 ft | 436 kts | 334° |
| 2026-05-05 20:54 | 22.74403 | 114.03006 | 19098 ft | 438 kts | 334° |
| 2026-05-05 20:54 | 22.77165 | 114.01607 | 19361 ft | 439 kts | 333° |
| 2026-05-05 20:54 | 22.79931 | 114.00191 | 19626 ft | 440 kts | 333° |
| 2026-05-05 20:54 | 22.82704 | 113.98761 | 19856 ft | 442 kts | 333° |
| 2026-05-05 20:55 | 22.85486 | 113.97322 | 20087 ft | 444 kts | 333° |
| 2026-05-05 20:55 | 22.88280 | 113.95876 | 20343 ft | 445 kts | 333° |
| 2026-05-05 20:55 | 22.91080 | 113.94432 | 20604 ft | 447 kts | 333° |
| 2026-05-05 20:55 | 22.93855 | 113.92996 | 20834 ft | 449 kts | 333° |
| 2026-05-05 20:56 | 22.96678 | 113.91525 | 21104 ft | 450 kts | 333° |
| 2026-05-05 20:56 | 22.99514 | 113.90045 | 21362 ft | 451 kts | 333° |
| 2026-05-05 20:56 | 23.02346 | 113.88566 | 21603 ft | 453 kts | 333° |
| 2026-05-05 20:56 | 23.05188 | 113.87084 | 21844 ft | 454 kts | 333° |
| 2026-05-05 20:57 | 23.07981 | 113.85462 | 22084 ft | 455 kts | 326° |
| 2026-05-05 20:57 | 23.10523 | 113.83421 | 22334 ft | 454 kts | 319° |
| 2026-05-05 20:57 | 23.12912 | 113.81159 | 22561 ft | 456 kts | 316° |
| 2026-05-05 20:57 | 23.15234 | 113.78808 | 22790 ft | 457 kts | 315° |
| 2026-05-05 20:58 | 23.17528 | 113.76403 | 23043 ft | 458 kts | 315° |
| 2026-05-05 20:58 | 23.19810 | 113.73980 | 23262 ft | 460 kts | 314° |
| 2026-05-05 20:58 | 23.22099 | 113.71546 | 23502 ft | 461 kts | 315° |
| 2026-05-05 20:58 | 23.24399 | 113.69108 | 23725 ft | 462 kts | 315° |
| 2026-05-05 20:59 | 23.26713 | 113.66667 | 23927 ft | 464 kts | 315° |
| 2026-05-05 20:59 | 23.29036 | 113.64226 | 24154 ft | 465 kts | 315° |
| 2026-05-05 20:59 | 23.31372 | 113.61774 | 24372 ft | 467 kts | 315° |
| 2026-05-05 20:59 | 23.33710 | 113.59321 | 24608 ft | 468 kts | 315° |
| 2026-05-05 21:00 | 23.36031 | 113.56885 | 24834 ft | 469 kts | 315° |
| 2026-05-05 21:00 | 23.38382 | 113.54417 | 25068 ft | 470 kts | 315° |
| 2026-05-05 21:00 | 23.40744 | 113.51936 | 25292 ft | 471 kts | 315° |
| 2026-05-05 21:00 | 23.43106 | 113.49454 | 25511 ft | 473 kts | 315° |
| 2026-05-05 21:01 | 23.45476 | 113.46962 | 25722 ft | 474 kts | 315° |
| 2026-05-05 21:01 | 23.47852 | 113.44461 | 25923 ft | 475 kts | 315° |
| 2026-05-05 21:01 | 23.50233 | 113.41952 | 26145 ft | 477 kts | 315° |
| 2026-05-05 21:01 | 23.52619 | 113.39438 | 26373 ft | 478 kts | 315° |
| 2026-05-05 21:02 | 23.55010 | 113.36922 | 26579 ft | 479 kts | 315° |
| 2026-05-05 21:02 | 23.57399 | 113.34377 | 26785 ft | 480 kts | 314° |
| 2026-05-05 21:02 | 23.59779 | 113.31815 | 26993 ft | 481 kts | 314° |
| 2026-05-05 21:02 | 23.62157 | 113.29241 | 27214 ft | 482 kts | 314° |
| 2026-05-05 21:03 | 23.64509 | 113.26626 | 27414 ft | 483 kts | 311° |
| 2026-05-05 21:03 | 23.66588 | 113.23742 | 27607 ft | 484 kts | 303° |
| 2026-05-05 21:03 | 23.68278 | 113.20557 | 27778 ft | 485 kts | 297° |
| 2026-05-05 21:03 | 23.69773 | 113.17246 | 27968 ft | 486 kts | 295° |
| 2026-05-05 21:04 | 23.71173 | 113.13939 | 28150 ft | 487 kts | 294° |
| 2026-05-05 21:04 | 23.72560 | 113.10552 | 28329 ft | 489 kts | 294° |
| 2026-05-05 21:04 | 23.73974 | 113.07182 | 28479 ft | 490 kts | 297° |
| 2026-05-05 21:04 | 23.75710 | 113.03982 | 28635 ft | 491 kts | 305° |
| 2026-05-05 21:05 | 23.77859 | 113.01084 | 28817 ft | 491 kts | 313° |
| 2026-05-05 21:05 | 23.80402 | 112.98597 | 29064 ft | 491 kts | 322° |
| 2026-05-05 21:05 | 23.83287 | 112.96591 | 29294 ft | 492 kts | 332° |
| 2026-05-05 21:05 | 23.86432 | 112.95118 | 29534 ft | 493 kts | 339° |
| 2026-05-05 21:06 | 23.89676 | 112.93934 | 29779 ft | 492 kts | 341° |
| 2026-05-05 21:06 | 23.92957 | 112.92840 | 29978 ft | 493 kts | 342° |
| 2026-05-05 21:06 | 23.99574 | 112.90717 | 30205 ft | 496 kts | 342° |
| 2026-05-05 21:07 | 24.01764 | 112.90010 | 30353 ft | 495 kts | 342° |
| 2026-05-05 21:07 | 24.05064 | 112.88934 | 30592 ft | 494 kts | 342° |
| 2026-05-05 21:07 | 24.08349 | 112.87852 | 30825 ft | 493 kts | 342° |
| 2026-05-05 21:07 | 24.11631 | 112.86763 | 31044 ft | 492 kts | 342° |
| 2026-05-05 21:08 | 24.14905 | 112.85672 | 31260 ft | 491 kts | 342° |
| 2026-05-05 21:08 | 24.18185 | 112.84586 | 31469 ft | 491 kts | 342° |
| 2026-05-05 21:08 | 24.21455 | 112.83501 | 31637 ft | 490 kts | 341° |
| 2026-05-05 21:08 | 24.24720 | 112.82413 | 31811 ft | 491 kts | 341° |
| 2026-05-05 21:09 | 24.27989 | 112.81321 | 31977 ft | 490 kts | 341° |
| 2026-05-05 21:09 | 24.31247 | 112.80234 | 32138 ft | 490 kts | 341° |
| 2026-05-05 21:09 | 24.34510 | 112.79146 | 32294 ft | 489 kts | 341° |
| 2026-05-05 21:09 | 24.37750 | 112.78008 | 32455 ft | 488 kts | 338° |
| 2026-05-05 21:10 | 24.40839 | 112.76506 | 32635 ft | 485 kts | 330° |
| 2026-05-05 21:10 | 24.43696 | 112.74548 | 32753 ft | 483 kts | 322° |
| 2026-05-05 21:10 | 24.46231 | 112.72141 | 32862 ft | 482 kts | 313° |
| 2026-05-05 21:10 | 24.48381 | 112.69326 | 32948 ft | 481 kts | 304° |
| 2026-05-05 21:11 | 24.51309 | 112.62776 | 33147 ft | 480 kts | 286° |
| 2026-05-05 21:11 | 24.52218 | 112.55542 | 33355 ft | 480 kts | 269° |
| 2026-05-05 21:12 | 24.51832 | 112.48270 | 33555 ft | 480 kts | 272° |
| 2026-05-05 21:12 | 24.52012 | 112.44615 | 33710 ft | 478 kts | 275° |
| 2026-05-05 21:12 | 24.52274 | 112.40979 | 33844 ft | 477 kts | 275° |
| 2026-05-05 21:13 | 24.52583 | 112.37353 | 33948 ft | 477 kts | 276° |
| 2026-05-05 21:13 | 24.52920 | 112.33726 | 33969 ft | 479 kts | 276° |
| 2026-05-05 21:13 | 24.53634 | 112.26432 | 34017 ft | 482 kts | 276° |
| 2026-05-05 21:14 | 24.54344 | 112.19094 | 34033 ft | 482 kts | 276° |
| 2026-05-05 21:14 | 24.55041 | 112.11769 | 34036 ft | 482 kts | 276° |
| 2026-05-05 21:15 | 24.55733 | 112.04432 | 34044 ft | 482 kts | 276° |
| 2026-05-05 21:15 | 24.56419 | 111.97106 | 34046 ft | 482 kts | 276° |
| 2026-05-05 21:16 | 24.57103 | 111.89767 | 34044 ft | 482 kts | 276° |
| 2026-05-05 21:16 | 24.57778 | 111.82472 | 34045 ft | 483 kts | 276° |
| 2026-05-05 21:17 | 24.58456 | 111.75136 | 34045 ft | 482 kts | 276° |
| 2026-05-05 21:17 | 24.59129 | 111.67801 | 34047 ft | 482 kts | 276° |
| 2026-05-05 21:18 | 24.59800 | 111.60458 | 34042 ft | 482 kts | 276° |
| 2026-05-05 21:18 | 24.60466 | 111.53116 | 34029 ft | 482 kts | 276° |
| 2026-05-05 21:19 | 24.61128 | 111.45768 | 34041 ft | 483 kts | 276° |
| 2026-05-05 21:19 | 24.61789 | 111.38414 | 34032 ft | 483 kts | 276° |
| 2026-05-05 21:20 | 24.62445 | 111.31066 | 34041 ft | 483 kts | 276° |
| 2026-05-05 21:20 | 24.63093 | 111.23767 | 34034 ft | 483 kts | 276° |
| 2026-05-05 21:21 | 24.63724 | 111.16408 | 34031 ft | 483 kts | 276° |
| 2026-05-05 21:21 | 24.64350 | 111.09052 | 34039 ft | 483 kts | 276° |
| 2026-05-05 21:22 | 24.64975 | 111.01693 | 34034 ft | 483 kts | 276° |
| 2026-05-05 21:22 | 24.65602 | 110.94329 | 34033 ft | 484 kts | 276° |
| 2026-05-05 21:23 | 24.66224 | 110.86969 | 34040 ft | 484 kts | 276° |
| 2026-05-05 21:23 | 24.67747 | 110.79787 | 34036 ft | 483 kts | 292° |
| 2026-05-05 21:24 | 24.71180 | 110.73458 | 34034 ft | 485 kts | 310° |
| 2026-05-05 21:24 | 24.75879 | 110.68174 | 34040 ft | 487 kts | 315° |
| 2026-05-05 21:25 | 24.80800 | 110.63059 | 34043 ft | 487 kts | 315° |
| 2026-05-05 21:25 | 24.85734 | 110.57939 | 34036 ft | 487 kts | 315° |
| 2026-05-05 21:26 | 24.90642 | 110.52785 | 34035 ft | 487 kts | 315° |
| 2026-05-05 21:26 | 24.95541 | 110.47612 | 34031 ft | 487 kts | 315° |
| 2026-05-05 21:27 | 25.00424 | 110.42439 | 34043 ft | 487 kts | 315° |
| 2026-05-05 21:27 | 25.05314 | 110.37268 | 34041 ft | 487 kts | 315° |
| 2026-05-05 21:28 | 25.10208 | 110.32095 | 34029 ft | 486 kts | 315° |
| 2026-05-05 21:28 | 25.15100 | 110.26923 | 34037 ft | 487 kts | 315° |
| 2026-05-05 21:29 | 25.19986 | 110.21751 | 34037 ft | 487 kts | 315° |
| 2026-05-05 21:29 | 25.24890 | 110.16590 | 34031 ft | 487 kts | 315° |
| 2026-05-05 21:30 | 25.29806 | 110.11451 | 34037 ft | 486 kts | 315° |
| 2026-05-05 21:30 | 25.34684 | 110.06349 | 34035 ft | 486 kts | 315° |
| 2026-05-05 21:31 | 25.39592 | 110.01198 | 34034 ft | 486 kts | 315° |
| 2026-05-05 21:31 | 25.44498 | 109.96040 | 34029 ft | 487 kts | 315° |
| 2026-05-05 21:32 | 25.49403 | 109.90877 | 34030 ft | 487 kts | 315° |
| 2026-05-05 21:32 | 25.54311 | 109.85705 | 34035 ft | 486 kts | 315° |
| 2026-05-05 21:33 | 25.59212 | 109.80537 | 34038 ft | 486 kts | 315° |
| 2026-05-05 21:33 | 25.64113 | 109.75360 | 34030 ft | 486 kts | 315° |
| 2026-05-05 21:34 | 25.69010 | 109.70180 | 34040 ft | 487 kts | 315° |
| 2026-05-05 21:34 | 25.73882 | 109.64974 | 34032 ft | 486 kts | 312° |
| 2026-05-05 21:35 | 25.77804 | 109.58928 | 34029 ft | 483 kts | 296° |
| 2026-05-05 21:35 | 25.80139 | 109.51957 | 34028 ft | 483 kts | 287° |
| 2026-05-05 21:36 | 25.82029 | 109.44800 | 34032 ft | 483 kts | 285° |
| 2026-05-05 21:36 | 25.83863 | 109.37618 | 34034 ft | 484 kts | 285° |
| 2026-05-05 21:37 | 25.85720 | 109.30442 | 34037 ft | 483 kts | 286° |
| 2026-05-05 21:37 | 25.87553 | 109.23418 | 34031 ft | 483 kts | 286° |
| 2026-05-05 21:38 | 25.89432 | 109.16250 | 34028 ft | 483 kts | 286° |
| 2026-05-05 21:38 | 25.91303 | 109.09079 | 34020 ft | 483 kts | 286° |
| 2026-05-05 21:39 | 25.93161 | 109.01950 | 34025 ft | 483 kts | 286° |
| 2026-05-05 21:39 | 25.95066 | 108.94790 | 34021 ft | 483 kts | 286° |
| 2026-05-05 21:40 | 25.96976 | 108.87626 | 34026 ft | 483 kts | 286° |
| 2026-05-05 21:40 | 25.98874 | 108.80476 | 34018 ft | 482 kts | 286° |
| 2026-05-05 21:41 | 26.00767 | 108.73319 | 34028 ft | 482 kts | 286° |
| 2026-05-05 21:41 | 26.02668 | 108.66165 | 34030 ft | 482 kts | 286° |
| 2026-05-05 21:42 | 26.04564 | 108.59020 | 34027 ft | 482 kts | 286° |
| 2026-05-05 21:42 | 26.06459 | 108.51870 | 34027 ft | 482 kts | 286° |
| 2026-05-05 21:43 | 26.08351 | 108.44718 | 34024 ft | 482 kts | 286° |
| 2026-05-05 21:43 | 26.10606 | 108.37697 | 34016 ft | 482 kts | 294° |
| 2026-05-05 21:44 | 26.13443 | 108.30932 | 34016 ft | 482 kts | 295° |
| 2026-05-05 21:44 | 26.16367 | 108.24212 | 34020 ft | 482 kts | 295° |
| 2026-05-05 21:45 | 26.19290 | 108.17495 | 34012 ft | 482 kts | 295° |
| 2026-05-05 21:45 | 26.22195 | 108.10775 | 34013 ft | 481 kts | 295° |
| 2026-05-05 21:46 | 26.25073 | 108.04097 | 34011 ft | 482 kts | 295° |
| 2026-05-05 21:46 | 26.27969 | 107.97366 | 34016 ft | 482 kts | 295° |
| 2026-05-05 21:47 | 26.30856 | 107.90635 | 34017 ft | 482 kts | 295° |
| 2026-05-05 21:47 | 26.33749 | 107.83889 | 34016 ft | 482 kts | 295° |
| 2026-05-05 21:48 | 26.36638 | 107.77139 | 34012 ft | 482 kts | 295° |
| 2026-05-05 21:48 | 26.39524 | 107.70380 | 34020 ft | 482 kts | 295° |
| 2026-05-05 21:49 | 26.42409 | 107.63618 | 34014 ft | 483 kts | 295° |
| 2026-05-05 21:49 | 26.45292 | 107.56845 | 34021 ft | 483 kts | 295° |
| 2026-05-05 21:50 | 26.47686 | 107.51220 | 34021 ft | 483 kts | 295° |
| 2026-05-05 21:50 | 26.50564 | 107.44443 | 34015 ft | 483 kts | 295° |
| 2026-05-05 21:51 | 26.53432 | 107.37660 | 34019 ft | 483 kts | 295° |
| 2026-05-05 21:51 | 26.56304 | 107.30871 | 34020 ft | 483 kts | 295° |
| 2026-05-05 21:52 | 26.60616 | 107.20673 | 34003 ft | 484 kts | 294° |
| 2026-05-05 21:53 | 26.63470 | 107.13910 | 34007 ft | 484 kts | 294° |
| 2026-05-05 21:53 | 26.66364 | 107.07092 | 34006 ft | 484 kts | 295° |
| 2026-05-05 21:54 | 26.69255 | 107.00289 | 34007 ft | 485 kts | 295° |
| 2026-05-05 21:54 | 26.72145 | 106.93476 | 34007 ft | 485 kts | 295° |
| 2026-05-05 21:55 | 26.75035 | 106.86649 | 34006 ft | 485 kts | 294° |
| 2026-05-05 21:55 | 26.78127 | 106.79936 | 34004 ft | 486 kts | 302° |
| 2026-05-05 21:56 | 26.82563 | 106.74235 | 34009 ft | 488 kts | 315° |
| 2026-05-05 21:56 | 26.87629 | 106.69148 | 34005 ft | 489 kts | 317° |
| 2026-05-05 21:57 | 26.92788 | 106.64160 | 34008 ft | 490 kts | 317° |
| 2026-05-05 21:57 | 26.97937 | 106.59163 | 34009 ft | 490 kts | 317° |
| 2026-05-05 21:58 | 27.03040 | 106.54166 | 34006 ft | 489 kts | 317° |
| 2026-05-05 21:58 | 27.08161 | 106.49128 | 34008 ft | 489 kts | 317° |
| 2026-05-05 21:59 | 27.13275 | 106.44091 | 33998 ft | 488 kts | 317° |
| 2026-05-05 21:59 | 27.18385 | 106.39057 | 33995 ft | 489 kts | 317° |
| 2026-05-05 22:00 | 27.23513 | 106.34025 | 33987 ft | 489 kts | 317° |
| 2026-05-05 22:00 | 27.28663 | 106.29020 | 33985 ft | 489 kts | 317° |
| 2026-05-05 22:01 | 27.33814 | 106.24009 | 33977 ft | 490 kts | 317° |
| 2026-05-05 22:01 | 27.38967 | 106.18987 | 33973 ft | 490 kts | 317° |
| 2026-05-05 22:02 | 27.44110 | 106.13964 | 33964 ft | 489 kts | 317° |
| 2026-05-05 22:02 | 27.49216 | 106.08970 | 33964 ft | 489 kts | 317° |
| 2026-05-05 22:03 | 27.54352 | 106.03939 | 33945 ft | 489 kts | 317° |
| 2026-05-05 22:03 | 27.59488 | 105.98902 | 33947 ft | 489 kts | 317° |
| 2026-05-05 22:04 | 27.64622 | 105.93861 | 33935 ft | 489 kts | 317° |
| 2026-05-05 22:04 | 27.69691 | 105.88737 | 33933 ft | 488 kts | 312° |
| 2026-05-05 22:05 | 27.73631 | 105.82584 | 33921 ft | 483 kts | 295° |
| 2026-05-05 22:05 | 27.76022 | 105.75510 | 33920 ft | 483 kts | 287° |
| 2026-05-05 22:06 | 27.78032 | 105.68274 | 33914 ft | 483 kts | 286° |
| 2026-05-05 22:06 | 27.80109 | 105.61057 | 33914 ft | 483 kts | 291° |
| 2026-05-05 22:07 | 27.82701 | 105.54049 | 33901 ft | 484 kts | 292° |
| 2026-05-05 22:07 | 27.85395 | 105.47088 | 33902 ft | 484 kts | 292° |
| 2026-05-05 22:08 | 27.88102 | 105.40127 | 33896 ft | 484 kts | 292° |
| 2026-05-05 22:08 | 27.90944 | 105.33223 | 33895 ft | 485 kts | 296° |
| 2026-05-05 22:09 | 27.94040 | 105.26442 | 33892 ft | 485 kts | 296° |
| 2026-05-05 22:09 | 27.97436 | 105.19854 | 33885 ft | 486 kts | 306° |
| 2026-05-05 22:10 | 28.02246 | 105.14469 | 33886 ft | 490 kts | 323° |
| 2026-05-05 22:10 | 28.07926 | 105.10256 | 33878 ft | 492 kts | 326° |
| 2026-05-05 22:11 | 28.13789 | 105.06213 | 33882 ft | 493 kts | 327° |
| 2026-05-05 22:11 | 28.19657 | 105.02171 | 33867 ft | 493 kts | 326° |
| 2026-05-05 22:12 | 28.25500 | 104.98098 | 33867 ft | 493 kts | 326° |
| 2026-05-05 22:12 | 28.31345 | 104.94000 | 33858 ft | 493 kts | 326° |
| 2026-05-05 22:13 | 28.37187 | 104.89898 | 33857 ft | 493 kts | 326° |
| 2026-05-05 22:13 | 28.43033 | 104.85797 | 33848 ft | 494 kts | 326° |
| 2026-05-05 22:14 | 28.48884 | 104.81710 | 33848 ft | 494 kts | 326° |
| 2026-05-05 22:14 | 28.54742 | 104.77612 | 33839 ft | 494 kts | 326° |
| 2026-05-05 22:15 | 28.60597 | 104.73511 | 33849 ft | 494 kts | 326° |
| 2026-05-05 22:15 | 28.66449 | 104.69402 | 33842 ft | 494 kts | 326° |
| 2026-05-05 22:16 | 28.72269 | 104.65310 | 33840 ft | 494 kts | 326° |
| 2026-05-05 22:16 | 28.78124 | 104.61187 | 33833 ft | 494 kts | 326° |
| 2026-05-05 22:17 | 28.83974 | 104.57062 | 33827 ft | 494 kts | 326° |
| 2026-05-05 22:17 | 28.89820 | 104.52929 | 33828 ft | 495 kts | 326° |
| 2026-05-05 22:18 | 28.95668 | 104.48760 | 33820 ft | 495 kts | 326° |
| 2026-05-05 22:18 | 29.01508 | 104.44592 | 33820 ft | 495 kts | 326° |
| 2026-05-05 22:19 | 29.07351 | 104.40419 | 33811 ft | 495 kts | 326° |
| 2026-05-05 22:19 | 29.13192 | 104.36241 | 33811 ft | 495 kts | 326° |
| 2026-05-05 22:20 | 29.18999 | 104.32081 | 33806 ft | 496 kts | 326° |
| 2026-05-05 22:20 | 29.25171 | 104.28529 | 33801 ft | 499 kts | 340° |
| 2026-05-05 22:21 | 29.32037 | 104.27249 | 33803 ft | 505 kts | 359° |
| 2026-05-05 22:21 | 29.39057 | 104.28067 | 33792 ft | 509 kts | 6° |
| 2026-05-05 22:22 | 29.46066 | 104.29298 | 33791 ft | 510 kts | 7° |
| 2026-05-05 22:22 | 29.53082 | 104.30561 | 33793 ft | 510 kts | 7° |
| 2026-05-05 22:23 | 29.60095 | 104.31778 | 33782 ft | 510 kts | 6° |
| 2026-05-05 22:23 | 29.67120 | 104.32978 | 33770 ft | 510 kts | 6° |
| 2026-05-05 22:24 | 29.74149 | 104.34173 | 33775 ft | 510 kts | 6° |
| 2026-05-05 22:24 | 29.81139 | 104.35364 | 33764 ft | 511 kts | 6° |
| 2026-05-05 22:25 | 29.88213 | 104.36578 | 33764 ft | 510 kts | 6° |
| 2026-05-05 22:25 | 29.95193 | 104.37774 | 33767 ft | 511 kts | 6° |
| 2026-05-05 22:26 | 30.02227 | 104.38978 | 33776 ft | 511 kts | 6° |
| 2026-05-05 22:26 | 30.09251 | 104.40186 | 33764 ft | 511 kts | 6° |
| 2026-05-05 22:27 | 30.16279 | 104.41401 | 33765 ft | 510 kts | 6° |
| 2026-05-05 22:27 | 30.23304 | 104.42628 | 33756 ft | 510 kts | 6° |
| 2026-05-05 22:28 | 30.30334 | 104.43857 | 33759 ft | 511 kts | 6° |
| 2026-05-05 22:28 | 30.37357 | 104.45082 | 33758 ft | 510 kts | 6° |
| 2026-05-05 22:29 | 30.44373 | 104.46306 | 33765 ft | 510 kts | 6° |
| 2026-05-05 22:29 | 30.51390 | 104.47535 | 33764 ft | 510 kts | 6° |
| 2026-05-05 22:30 | 30.58419 | 104.48477 | 33771 ft | 507 kts | 358° |
| 2026-05-05 22:30 | 30.65332 | 104.47332 | 33780 ft | 500 kts | 342° |
| 2026-05-05 22:31 | 30.71986 | 104.44947 | 33765 ft | 500 kts | 339° |
| 2026-05-05 22:31 | 30.78542 | 104.42384 | 33784 ft | 500 kts | 339° |
| 2026-05-05 22:32 | 30.85163 | 104.39881 | 33782 ft | 501 kts | 344° |
| 2026-05-05 22:32 | 30.92088 | 104.38870 | 33781 ft | 503 kts | 355° |
| 2026-05-05 22:33 | 30.97918 | 104.38632 | 33783 ft | 504 kts | 356° |
| 2026-05-05 22:33 | 31.04930 | 104.38484 | 33783 ft | 504 kts | 357° |
| 2026-05-05 22:34 | 31.11950 | 104.38336 | 33783 ft | 504 kts | 356° |
| 2026-05-05 22:34 | 31.18960 | 104.38163 | 33783 ft | 504 kts | 356° |
| 2026-05-05 22:35 | 31.25971 | 104.37978 | 33790 ft | 503 kts | 356° |
| 2026-05-05 22:35 | 31.32969 | 104.37634 | 33793 ft | 502 kts | 355° |
| 2026-05-05 22:36 | 31.39946 | 104.37172 | 33793 ft | 502 kts | 354° |
| 2026-05-05 22:36 | 31.46920 | 104.36728 | 33793 ft | 502 kts | 354° |
| 2026-05-05 22:37 | 31.53895 | 104.36311 | 33793 ft | 501 kts | 355° |
| 2026-05-05 22:37 | 31.60869 | 104.35901 | 33792 ft | 501 kts | 355° |
| 2026-05-05 22:38 | 31.67841 | 104.35495 | 33792 ft | 501 kts | 355° |
| 2026-05-05 22:38 | 31.74765 | 104.35089 | 33793 ft | 501 kts | 355° |
| 2026-05-05 22:39 | 31.81726 | 104.34703 | 33801 ft | 501 kts | 355° |
| 2026-05-05 22:39 | 31.88693 | 104.34352 | 33801 ft | 501 kts | 355° |
| 2026-05-05 22:40 | 31.95656 | 104.34004 | 33801 ft | 501 kts | 355° |
| 2026-05-05 22:40 | 32.02620 | 104.33649 | 33804 ft | 501 kts | 355° |
| 2026-05-05 22:41 | 32.09582 | 104.33293 | 33811 ft | 501 kts | 355° |
| 2026-05-05 22:41 | 32.16548 | 104.32933 | 33810 ft | 501 kts | 355° |
| 2026-05-05 22:42 | 32.23515 | 104.32569 | 33809 ft | 501 kts | 355° |
| 2026-05-05 22:42 | 32.30476 | 104.32210 | 33822 ft | 501 kts | 355° |
| 2026-05-05 22:43 | 32.37442 | 104.31851 | 33820 ft | 501 kts | 355° |
| 2026-05-05 22:43 | 32.44415 | 104.31502 | 33826 ft | 501 kts | 355° |
| 2026-05-05 22:44 | 32.51386 | 104.31170 | 33828 ft | 501 kts | 355° |
| 2026-05-05 22:44 | 32.58370 | 104.30835 | 33827 ft | 502 kts | 355° |
| 2026-05-05 22:45 | 32.65354 | 104.30500 | 33839 ft | 502 kts | 355° |
| 2026-05-05 22:45 | 32.72337 | 104.30163 | 33841 ft | 502 kts | 355° |
| 2026-05-05 22:46 | 32.79335 | 104.29824 | 33846 ft | 503 kts | 355° |
| 2026-05-05 22:46 | 32.86287 | 104.29485 | 33846 ft | 503 kts | 355° |
| 2026-05-05 22:47 | 32.93288 | 104.29155 | 33859 ft | 504 kts | 355° |
| 2026-05-05 22:47 | 33.00291 | 104.28811 | 33861 ft | 503 kts | 355° |
| 2026-05-05 22:48 | 33.07303 | 104.28470 | 33862 ft | 504 kts | 355° |
| 2026-05-05 22:48 | 33.14316 | 104.28126 | 33876 ft | 504 kts | 355° |
| 2026-05-05 22:49 | 33.21333 | 104.27780 | 33873 ft | 504 kts | 355° |
| 2026-05-05 22:49 | 33.28358 | 104.27431 | 33885 ft | 506 kts | 355° |
| 2026-05-05 22:50 | 33.35296 | 104.26360 | 33893 ft | 500 kts | 342° |
| 2026-05-05 22:50 | 33.41636 | 104.23104 | 33897 ft | 496 kts | 329° |
| 2026-05-05 22:51 | 33.47678 | 104.19073 | 33901 ft | 496 kts | 328° |
| 2026-05-05 22:51 | 33.53662 | 104.14929 | 33911 ft | 497 kts | 328° |
| 2026-05-05 22:52 | 33.60101 | 104.11875 | 33917 ft | 502 kts | 346° |
| 2026-05-05 22:52 | 33.67085 | 104.11110 | 33921 ft | 506 kts | 356° |
| 2026-05-05 22:53 | 33.74143 | 104.11081 | 33933 ft | 508 kts | 358° |
| 2026-05-05 22:53 | 33.81208 | 104.11152 | 33943 ft | 508 kts | 358° |
| 2026-05-05 22:54 | 33.88264 | 104.11192 | 33950 ft | 508 kts | 358° |
| 2026-05-05 22:54 | 33.95338 | 104.11202 | 33955 ft | 508 kts | 358° |
| 2026-05-05 22:55 | 34.02361 | 104.11198 | 33960 ft | 508 kts | 358° |
| 2026-05-05 22:55 | 34.09425 | 104.11195 | 33965 ft | 508 kts | 358° |
| 2026-05-05 22:56 | 34.16493 | 104.11194 | 33975 ft | 508 kts | 358° |
| 2026-05-05 22:56 | 34.23561 | 104.11196 | 33989 ft | 508 kts | 358° |
| 2026-05-05 22:57 | 34.30634 | 104.11196 | 33998 ft | 508 kts | 358° |
| 2026-05-05 22:57 | 34.37712 | 104.11197 | 34006 ft | 507 kts | 358° |
| 2026-05-05 22:58 | 34.44779 | 104.11195 | 34009 ft | 508 kts | 358° |
| 2026-05-05 22:58 | 34.51853 | 104.11195 | 34030 ft | 508 kts | 358° |
| 2026-05-05 22:59 | 34.58922 | 104.11191 | 34054 ft | 508 kts | 358° |
| 2026-05-05 22:59 | 34.65942 | 104.11193 | 34062 ft | 507 kts | 358° |
| 2026-05-05 23:00 | 34.76549 | 104.11194 | 34082 ft | 508 kts | 358° |
| 2026-05-05 23:00 | 34.83619 | 104.11196 | 34092 ft | 508 kts | 358° |
| 2026-05-05 23:01 | 34.90684 | 104.11195 | 34099 ft | 508 kts | 358° |
| 2026-05-05 23:01 | 34.97751 | 104.11195 | 34106 ft | 508 kts | 358° |
| 2026-05-05 23:02 | 35.04826 | 104.11194 | 34115 ft | 508 kts | 358° |
| 2026-05-05 23:02 | 35.11894 | 104.11192 | 34118 ft | 508 kts | 358° |
| 2026-05-05 23:03 | 35.18966 | 104.11191 | 34124 ft | 508 kts | 358° |
| 2026-05-05 23:03 | 35.25988 | 104.11194 | 34133 ft | 508 kts | 358° |
| 2026-05-05 23:04 | 35.33059 | 104.11194 | 34139 ft | 508 kts | 358° |
| 2026-05-05 23:04 | 35.40132 | 104.11195 | 34144 ft | 508 kts | 358° |
| 2026-05-05 23:05 | 35.47204 | 104.11194 | 34156 ft | 508 kts | 358° |
| 2026-05-05 23:05 | 35.54270 | 104.11208 | 34156 ft | 508 kts | 358° |
| 2026-05-05 23:06 | 35.61342 | 104.11240 | 34163 ft | 508 kts | 358° |
| 2026-05-05 23:06 | 35.68421 | 104.11271 | 34163 ft | 508 kts | 358° |
| 2026-05-05 23:07 | 35.75494 | 104.11303 | 34171 ft | 508 kts | 358° |
| 2026-05-05 23:07 | 35.82570 | 104.11263 | 34172 ft | 507 kts | 354° |
| 2026-05-05 23:08 | 35.89562 | 104.10627 | 34183 ft | 506 kts | 353° |
| 2026-05-05 23:08 | 35.96584 | 104.09867 | 34183 ft | 506 kts | 353° |
| 2026-05-05 23:09 | 36.03605 | 104.09083 | 34186 ft | 506 kts | 353° |
| 2026-05-05 23:09 | 36.10634 | 104.08303 | 34191 ft | 506 kts | 353° |
| 2026-05-05 23:10 | 36.17652 | 104.07531 | 34191 ft | 506 kts | 353° |
| 2026-05-05 23:10 | 36.24630 | 104.06768 | 34191 ft | 506 kts | 353° |
| 2026-05-05 23:11 | 36.31651 | 104.06010 | 34191 ft | 506 kts | 353° |
| 2026-05-05 23:11 | 36.38663 | 104.05245 | 34198 ft | 506 kts | 353° |
| 2026-05-05 23:12 | 36.45676 | 104.04469 | 34198 ft | 506 kts | 353° |
| 2026-05-05 23:12 | 36.52687 | 104.03690 | 34200 ft | 506 kts | 352° |
| 2026-05-05 23:13 | 36.59691 | 104.02908 | 34199 ft | 505 kts | 352° |
| 2026-05-05 23:13 | 36.66597 | 104.01460 | 34201 ft | 503 kts | 347° |
| 2026-05-05 23:14 | 36.73467 | 103.99766 | 34201 ft | 503 kts | 346° |
| 2026-05-05 23:14 | 36.80332 | 103.98029 | 34211 ft | 503 kts | 346° |
| 2026-05-05 23:15 | 36.87198 | 103.96290 | 34251 ft | 504 kts | 346° |
| 2026-05-05 23:15 | 36.92903 | 103.94846 | 34256 ft | 503 kts | 346° |
| 2026-05-05 23:16 | 36.99760 | 103.93116 | 34247 ft | 503 kts | 346° |
| 2026-05-05 23:16 | 37.06618 | 103.91384 | 34246 ft | 502 kts | 346° |
| 2026-05-05 23:17 | 37.13468 | 103.89653 | 34246 ft | 502 kts | 346° |
| 2026-05-05 23:17 | 37.20307 | 103.87923 | 34246 ft | 501 kts | 346° |
| 2026-05-05 23:18 | 37.27146 | 103.86182 | 34247 ft | 501 kts | 346° |
| 2026-05-05 23:18 | 37.33808 | 103.83806 | 34247 ft | 496 kts | 336° |
| 2026-05-05 23:19 | 37.40192 | 103.80514 | 34245 ft | 496 kts | 334° |
| 2026-05-05 23:19 | 37.46529 | 103.77075 | 34238 ft | 495 kts | 334° |
| 2026-05-05 23:20 | 37.52852 | 103.73619 | 34242 ft | 495 kts | 334° |
| 2026-05-05 23:20 | 37.59142 | 103.70192 | 34238 ft | 495 kts | 334° |
| 2026-05-05 23:21 | 37.65464 | 103.66761 | 34240 ft | 494 kts | 334° |
| 2026-05-05 23:21 | 37.71792 | 103.63311 | 34239 ft | 495 kts | 334° |
| 2026-05-05 23:22 | 37.78108 | 103.59860 | 34246 ft | 494 kts | 334° |
| 2026-05-05 23:22 | 37.84436 | 103.56400 | 34246 ft | 494 kts | 334° |
| 2026-05-05 23:23 | 37.90747 | 103.52943 | 34246 ft | 494 kts | 334° |
| 2026-05-05 23:23 | 37.97065 | 103.49475 | 34246 ft | 494 kts | 334° |
| 2026-05-05 23:24 | 38.03370 | 103.46007 | 34246 ft | 494 kts | 334° |
| 2026-05-05 23:24 | 38.09677 | 103.42535 | 34246 ft | 494 kts | 334° |
| 2026-05-05 23:25 | 38.15942 | 103.39077 | 34246 ft | 494 kts | 334° |
| 2026-05-05 23:25 | 38.22253 | 103.35587 | 34246 ft | 494 kts | 333° |
| 2026-05-05 23:26 | 38.28559 | 103.32093 | 34246 ft | 494 kts | 333° |
| 2026-05-05 23:26 | 38.34859 | 103.28595 | 34246 ft | 494 kts | 333° |
| 2026-05-05 23:27 | 38.41177 | 103.25081 | 34246 ft | 494 kts | 333° |
| 2026-05-05 23:27 | 38.47475 | 103.21571 | 34247 ft | 494 kts | 333° |
| 2026-05-05 23:28 | 38.53778 | 103.18055 | 34247 ft | 494 kts | 333° |
| 2026-05-05 23:28 | 38.60085 | 103.14528 | 34236 ft | 494 kts | 333° |
| 2026-05-05 23:29 | 38.66387 | 103.10995 | 34238 ft | 495 kts | 333° |
| 2026-05-05 23:29 | 38.72687 | 103.07455 | 34239 ft | 495 kts | 333° |
| 2026-05-05 23:30 | 38.78992 | 103.03910 | 34236 ft | 495 kts | 333° |
| 2026-05-05 23:30 | 38.85294 | 103.00357 | 34240 ft | 495 kts | 333° |
| 2026-05-05 23:31 | 38.91554 | 102.96822 | 34234 ft | 495 kts | 333° |
| 2026-05-05 23:31 | 38.97864 | 102.93254 | 34238 ft | 495 kts | 333° |
| 2026-05-05 23:32 | 39.04164 | 102.89679 | 34233 ft | 494 kts | 333° |
| 2026-05-05 23:32 | 39.10453 | 102.86105 | 34228 ft | 494 kts | 333° |
| 2026-05-05 23:33 | 39.16747 | 102.82519 | 34233 ft | 494 kts | 333° |
| 2026-05-05 23:33 | 39.23036 | 102.78931 | 34224 ft | 494 kts | 333° |
| 2026-05-05 23:34 | 39.29326 | 102.75341 | 34222 ft | 494 kts | 333° |
| 2026-05-05 23:34 | 39.35565 | 102.71771 | 34215 ft | 493 kts | 333° |
| 2026-05-05 23:35 | 39.41945 | 102.68474 | 34217 ft | 497 kts | 341° |
| 2026-05-05 23:35 | 39.48830 | 102.67309 | 34213 ft | 503 kts | 355° |
| 2026-05-05 23:36 | 39.55859 | 102.67287 | 34217 ft | 505 kts | 358° |
| 2026-05-05 23:36 | 39.62883 | 102.67452 | 34239 ft | 505 kts | 358° |
| 2026-05-05 23:37 | 39.69916 | 102.67606 | 34258 ft | 505 kts | 358° |
| 2026-05-05 23:37 | 39.76944 | 102.67725 | 34257 ft | 504 kts | 357° |
| 2026-05-05 23:38 | 39.83966 | 102.67827 | 34258 ft | 505 kts | 357° |
| 2026-05-05 23:38 | 39.90986 | 102.67931 | 34258 ft | 504 kts | 357° |
| 2026-05-05 23:39 | 39.98008 | 102.68036 | 34254 ft | 504 kts | 357° |
| 2026-05-05 23:39 | 40.05031 | 102.68142 | 34256 ft | 504 kts | 357° |
| 2026-05-05 23:40 | 40.12046 | 102.68248 | 34255 ft | 504 kts | 357° |
| 2026-05-05 23:40 | 40.19032 | 102.68350 | 34257 ft | 505 kts | 357° |
| 2026-05-05 23:41 | 40.26061 | 102.68457 | 34257 ft | 504 kts | 357° |
| 2026-05-05 23:41 | 40.33089 | 102.68566 | 34254 ft | 504 kts | 357° |
| 2026-05-05 23:42 | 40.40107 | 102.68678 | 34256 ft | 505 kts | 357° |
| 2026-05-05 23:42 | 40.47129 | 102.68784 | 34257 ft | 504 kts | 357° |
| 2026-05-05 23:43 | 40.54160 | 102.68889 | 34257 ft | 505 kts | 357° |
| 2026-05-05 23:43 | 40.61131 | 102.68995 | 34254 ft | 505 kts | 357° |
| 2026-05-05 23:44 | 40.68205 | 102.69103 | 34256 ft | 505 kts | 357° |
| 2026-05-05 23:44 | 40.75182 | 102.69211 | 34256 ft | 504 kts | 357° |
| 2026-05-05 23:45 | 40.82210 | 102.69321 | 34256 ft | 504 kts | 356° |
| 2026-05-05 23:45 | 40.89237 | 102.69429 | 34255 ft | 505 kts | 356° |
| 2026-05-05 23:46 | 40.96259 | 102.69537 | 34256 ft | 505 kts | 356° |
| 2026-05-05 23:46 | 41.03280 | 102.69645 | 34256 ft | 505 kts | 356° |
| 2026-05-05 23:47 | 41.10311 | 102.69759 | 34254 ft | 505 kts | 356° |
| 2026-05-05 23:47 | 41.17339 | 102.69870 | 34255 ft | 505 kts | 356° |
| 2026-05-05 23:48 | 41.24368 | 102.69976 | 34257 ft | 505 kts | 356° |
| 2026-05-05 23:48 | 41.31393 | 102.70062 | 34251 ft | 504 kts | 354° |
| 2026-05-05 23:49 | 41.38214 | 102.68599 | 34257 ft | 492 kts | 337° |
| 2026-05-05 23:49 | 41.44152 | 102.64513 | 34257 ft | 479 kts | 318° |
| 2026-05-05 23:50 | 41.48683 | 102.58183 | 34256 ft | 469 kts | 300° |
| 2026-05-05 23:50 | 41.51403 | 102.50391 | 34257 ft | 461 kts | 283° |
| 2026-05-05 23:51 | 41.52474 | 102.41999 | 34255 ft | 460 kts | 279° |
| 2026-05-05 23:51 | 41.54248 | 102.33774 | 34255 ft | 462 kts | 286° |
| 2026-05-05 23:52 | 41.56446 | 102.25688 | 34258 ft | 463 kts | 288° |
| 2026-05-05 23:52 | 41.58731 | 102.17651 | 34256 ft | 463 kts | 288° |
| 2026-05-05 23:53 | 41.61020 | 102.09621 | 34254 ft | 462 kts | 288° |
| 2026-05-05 23:53 | 41.63291 | 102.01576 | 34255 ft | 462 kts | 288° |
| 2026-05-05 23:54 | 41.65547 | 101.93527 | 34257 ft | 462 kts | 288° |
| 2026-05-05 23:54 | 41.67796 | 101.85474 | 34258 ft | 462 kts | 288° |
| 2026-05-05 23:55 | 41.70040 | 101.77417 | 34258 ft | 462 kts | 288° |
| 2026-05-05 23:55 | 41.72280 | 101.69353 | 34256 ft | 462 kts | 288° |
| 2026-05-05 23:56 | 41.74140 | 101.62638 | 34255 ft | 462 kts | 288° |
| 2026-05-05 23:56 | 41.76370 | 101.54561 | 34254 ft | 462 kts | 288° |
| 2026-05-05 23:57 | 41.78597 | 101.46472 | 34257 ft | 463 kts | 288° |
| 2026-05-05 23:57 | 41.80805 | 101.38421 | 34256 ft | 463 kts | 288° |
| 2026-05-05 23:58 | 41.83021 | 101.30317 | 34255 ft | 463 kts | 288° |
| 2026-05-05 23:58 | 41.84854 | 101.22068 | 34255 ft | 460 kts | 277° |
| 2026-05-05 23:59 | 41.85388 | 101.13533 | 34255 ft | 459 kts | 271° |
| 2026-05-05 23:59 | 41.85606 | 101.04973 | 34256 ft | 459 kts | 270° |
| 2026-05-06 00:00 | 41.85777 | 100.96406 | 34256 ft | 459 kts | 270° |
| 2026-05-06 00:00 | 41.85956 | 100.87831 | 34255 ft | 459 kts | 270° |
| 2026-05-06 00:01 | 41.86144 | 100.79270 | 34255 ft | 459 kts | 270° |
| 2026-05-06 00:01 | 41.86327 | 100.70754 | 34254 ft | 459 kts | 270° |
| 2026-05-06 00:02 | 41.86506 | 100.62130 | 34255 ft | 459 kts | 270° |
| 2026-05-06 00:02 | 41.86679 | 100.53611 | 34257 ft | 460 kts | 270° |
| 2026-05-06 00:03 | 41.86844 | 100.45045 | 34255 ft | 459 kts | 270° |
| 2026-05-06 00:03 | 41.87002 | 100.36485 | 34256 ft | 459 kts | 270° |
| 2026-05-06 00:04 | 41.87155 | 100.27916 | 34255 ft | 459 kts | 270° |
| 2026-05-06 00:04 | 41.87302 | 100.19364 | 34256 ft | 458 kts | 270° |
| 2026-05-06 00:05 | 41.87507 | 100.06537 | 34263 ft | 458 kts | 270° |
| 2026-05-06 00:06 | 41.87636 | 99.97995 | 34264 ft | 457 kts | 270° |
| 2026-05-06 00:06 | 41.87761 | 99.89442 | 34266 ft | 457 kts | 270° |
| 2026-05-06 00:07 | 41.87878 | 99.80897 | 34264 ft | 457 kts | 270° |
| 2026-05-06 00:07 | 41.87989 | 99.72360 | 34265 ft | 458 kts | 270° |
| 2026-05-06 00:08 | 41.88093 | 99.63864 | 34265 ft | 458 kts | 270° |
| 2026-05-06 00:08 | 41.88191 | 99.55314 | 34265 ft | 458 kts | 270° |
| 2026-05-06 00:09 | 41.88282 | 99.46757 | 34265 ft | 459 kts | 270° |
| 2026-05-06 00:09 | 41.88368 | 99.38187 | 34266 ft | 460 kts | 270° |
| 2026-05-06 00:10 | 41.88447 | 99.29612 | 34265 ft | 460 kts | 270° |
| 2026-05-06 00:10 | 41.88521 | 99.21030 | 34265 ft | 460 kts | 270° |
| 2026-05-06 00:11 | 41.88586 | 99.12437 | 34264 ft | 461 kts | 270° |
| 2026-05-06 00:11 | 41.88648 | 99.03830 | 34264 ft | 461 kts | 270° |
| 2026-05-06 00:12 | 41.88706 | 98.95212 | 34265 ft | 461 kts | 270° |
| 2026-05-06 00:12 | 41.88752 | 98.86589 | 34265 ft | 462 kts | 269° |
| 2026-05-06 00:13 | 41.88793 | 98.77955 | 34265 ft | 463 kts | 269° |
| 2026-05-06 00:13 | 41.88824 | 98.69323 | 34265 ft | 463 kts | 269° |
| 2026-05-06 00:14 | 41.88852 | 98.60733 | 34265 ft | 463 kts | 269° |
| 2026-05-06 00:14 | 41.88876 | 98.52085 | 34265 ft | 463 kts | 269° |
| 2026-05-06 00:15 | 41.88890 | 98.43438 | 34280 ft | 463 kts | 269° |
| 2026-05-06 00:15 | 41.88899 | 98.34780 | 34284 ft | 464 kts | 269° |
| 2026-05-06 00:16 | 41.88902 | 98.26127 | 34283 ft | 463 kts | 269° |
| 2026-05-06 00:16 | 41.88898 | 98.17472 | 34277 ft | 464 kts | 269° |
| 2026-05-06 00:17 | 41.88887 | 98.08808 | 34274 ft | 464 kts | 269° |
| 2026-05-06 00:17 | 41.88869 | 98.00153 | 34274 ft | 464 kts | 269° |
| 2026-05-06 00:18 | 41.88845 | 97.91486 | 34273 ft | 464 kts | 269° |
| 2026-05-06 00:18 | 41.88817 | 97.82832 | 34274 ft | 464 kts | 269° |
| 2026-05-06 00:19 | 41.88780 | 97.74169 | 34274 ft | 464 kts | 269° |
| 2026-05-06 00:19 | 41.88735 | 97.65503 | 34273 ft | 464 kts | 269° |
| 2026-05-06 00:20 | 41.88685 | 97.56900 | 34274 ft | 464 kts | 269° |
| 2026-05-06 00:20 | 41.88633 | 97.48236 | 34274 ft | 464 kts | 269° |
| 2026-05-06 00:21 | 41.88570 | 97.39575 | 34275 ft | 464 kts | 269° |
| 2026-05-06 00:21 | 41.88501 | 97.30913 | 34274 ft | 464 kts | 269° |
| 2026-05-06 00:22 | 41.88425 | 97.22244 | 34274 ft | 464 kts | 269° |
| 2026-05-06 00:22 | 41.88344 | 97.13576 | 34274 ft | 465 kts | 269° |
| 2026-05-06 00:23 | 41.88255 | 97.04896 | 34273 ft | 464 kts | 269° |
| 2026-05-06 00:23 | 41.88160 | 96.96229 | 34274 ft | 465 kts | 269° |
| 2026-05-06 00:24 | 41.88057 | 96.87553 | 34275 ft | 465 kts | 269° |
| 2026-05-06 00:24 | 41.87948 | 96.78867 | 34275 ft | 465 kts | 269° |
| 2026-05-06 00:25 | 41.87831 | 96.70186 | 34274 ft | 465 kts | 268° |
| 2026-05-06 00:25 | 41.87711 | 96.61511 | 34274 ft | 465 kts | 268° |
| 2026-05-06 00:26 | 41.87584 | 96.52820 | 34274 ft | 466 kts | 268° |
| 2026-05-06 00:26 | 41.87449 | 96.44137 | 34274 ft | 466 kts | 268° |
| 2026-05-06 00:27 | 41.87309 | 96.35503 | 34275 ft | 465 kts | 268° |
| 2026-05-06 00:27 | 41.87160 | 96.26818 | 34274 ft | 466 kts | 268° |
| 2026-05-06 00:28 | 41.87038 | 96.18119 | 34274 ft | 466 kts | 269° |
| 2026-05-06 00:28 | 41.87008 | 96.09428 | 34274 ft | 466 kts | 269° |
| 2026-05-06 00:29 | 41.86978 | 96.00731 | 34273 ft | 466 kts | 269° |
| 2026-05-06 00:29 | 41.86928 | 95.92044 | 34274 ft | 465 kts | 269° |
| 2026-05-06 00:30 | 41.86860 | 95.83350 | 34274 ft | 466 kts | 269° |
| 2026-05-06 00:30 | 41.86785 | 95.74657 | 34275 ft | 466 kts | 269° |
| 2026-05-06 00:31 | 41.86704 | 95.65959 | 34274 ft | 466 kts | 269° |
| 2026-05-06 00:31 | 41.86618 | 95.57268 | 34275 ft | 466 kts | 269° |
| 2026-05-06 00:32 | 41.86525 | 95.48573 | 34274 ft | 466 kts | 269° |
| 2026-05-06 00:32 | 41.86425 | 95.39900 | 34273 ft | 465 kts | 269° |
| 2026-05-06 00:33 | 41.86326 | 95.31211 | 34271 ft | 466 kts | 270° |
| 2026-05-06 00:33 | 41.87156 | 95.22613 | 34274 ft | 467 kts | 285° |
| 2026-05-06 00:34 | 41.89833 | 95.14743 | 34277 ft | 470 kts | 302° |
| 2026-05-06 00:34 | 41.93956 | 95.07887 | 34274 ft | 473 kts | 309° |
| 2026-05-06 00:35 | 41.98340 | 95.01266 | 34273 ft | 474 kts | 310° |
| 2026-05-06 00:35 | 42.02729 | 94.94648 | 34274 ft | 474 kts | 310° |
| 2026-05-06 00:36 | 42.07091 | 94.87989 | 34274 ft | 475 kts | 309° |
| 2026-05-06 00:36 | 42.11447 | 94.81296 | 34274 ft | 475 kts | 309° |